EGF389 KLAS-KASE
Flight info
| Callsign | EGF389 |
|---|---|
| Flight time | 1h 28m |
| Altitude | 27000 |
| Route | LAS V394 MMM DBL |
| Aircraft | DH8D/M-VGDW/C |
Departure
| Time | 2026-05-05 00:29 |
|---|---|
| Airport | Harry Reid International Airport (KLAS) |
Arrival
| Time | 2026-05-05 01:57 |
|---|---|
| Airport | Aspen-Pitkin County Airport (Sardy Field) (KASE) |
| Time | Latitude | Longitude | Altitude | Speed | Heading |
|---|---|---|---|---|---|
| 2026-05-04 23:58 | 36.08312 | -115.13998 | 2084 ft | 0 kts | 124° |
| 2026-05-05 00:17 | 36.08317 | -115.14008 | 2085 ft | 2 kts | 124° |
| 2026-05-05 00:17 | 36.08326 | -115.14023 | 2085 ft | 2 kts | 124° |
| 2026-05-05 00:17 | 36.08334 | -115.14038 | 2085 ft | 2 kts | 124° |
| 2026-05-05 00:18 | 36.08344 | -115.14052 | 2086 ft | 2 kts | 147° |
| 2026-05-05 00:18 | 36.08357 | -115.14058 | 2085 ft | 2 kts | 178° |
| 2026-05-05 00:18 | 36.08371 | -115.14054 | 2085 ft | 2 kts | 210° |
| 2026-05-05 00:18 | 36.08379 | -115.14047 | 2085 ft | 0 kts | 226° |
| 2026-05-05 00:21 | 36.08376 | -115.14050 | 2085 ft | 3 kts | 225° |
| 2026-05-05 00:21 | 36.08326 | -115.14112 | 2088 ft | 16 kts | 224° |
| 2026-05-05 00:21 | 36.08274 | -115.14168 | 2090 ft | 8 kts | 172° |
| 2026-05-05 00:22 | 36.08187 | -115.14159 | 2091 ft | 17 kts | 180° |
| 2026-05-05 00:22 | 36.08074 | -115.14159 | 2093 ft | 13 kts | 181° |
| 2026-05-05 00:22 | 36.07959 | -115.14159 | 2095 ft | 16 kts | 179° |
| 2026-05-05 00:22 | 36.07832 | -115.14159 | 2097 ft | 17 kts | 178° |
| 2026-05-05 00:23 | 36.07754 | -115.14076 | 2096 ft | 21 kts | 95° |
| 2026-05-05 00:23 | 36.07753 | -115.13814 | 2087 ft | 38 kts | 90° |
| 2026-05-05 00:23 | 36.07754 | -115.13464 | 2077 ft | 39 kts | 92° |
| 2026-05-05 00:23 | 36.07754 | -115.13176 | 2071 ft | 27 kts | 90° |
| 2026-05-05 00:24 | 36.07754 | -115.12972 | 2067 ft | 20 kts | 89° |
| 2026-05-05 00:24 | 36.07754 | -115.12786 | 2063 ft | 28 kts | 90° |
| 2026-05-05 00:24 | 36.07754 | -115.12558 | 2060 ft | 28 kts | 90° |
| 2026-05-05 00:24 | 36.07755 | -115.12267 | 2056 ft | 36 kts | 89° |
| 2026-05-05 00:25 | 36.07745 | -115.12148 | 2055 ft | 9 kts | 126° |
| 2026-05-05 00:25 | 36.07737 | -115.12138 | 2055 ft | 0 kts | 146° |
| 2026-05-05 00:26 | 36.07727 | -115.12131 | 2055 ft | 7 kts | 158° |
| 2026-05-05 00:26 | 36.07652 | -115.12136 | 2055 ft | 10 kts | 229° |
| 2026-05-05 00:26 | 36.07643 | -115.12225 | 2056 ft | 2 kts | 270° |
| 2026-05-05 00:27 | 36.07643 | -115.12279 | 2057 ft | 19 kts | 269° |
| 2026-05-05 00:28 | 36.07642 | -115.12786 | 2064 ft | 95 kts | 270° |
| 2026-05-05 00:28 | 36.07641 | -115.13860 | 2091 ft | 145 kts | 270° |
| 2026-05-05 00:28 | 36.07641 | -115.15204 | 2175 ft | 166 kts | 270° |
| 2026-05-05 00:28 | 36.07645 | -115.16693 | 2574 ft | 169 kts | 270° |
| 2026-05-05 00:29 | 36.07648 | -115.18147 | 3032 ft | 174 kts | 273° |
| 2026-05-05 00:29 | 36.07747 | -115.19649 | 3482 ft | 174 kts | 288° |
| 2026-05-05 00:29 | 36.08430 | -115.20853 | 3802 ft | 177 kts | 324° |
| 2026-05-05 00:29 | 36.09445 | -115.21732 | 4290 ft | 178 kts | 326° |
| 2026-05-05 00:30 | 36.10510 | -115.22665 | 4652 ft | 193 kts | 326° |
| 2026-05-05 00:30 | 36.11619 | -115.23647 | 5186 ft | 197 kts | 326° |
| 2026-05-05 00:30 | 36.12728 | -115.24641 | 5772 ft | 200 kts | 327° |
| 2026-05-05 00:30 | 36.13866 | -115.25661 | 6397 ft | 201 kts | 327° |
| 2026-05-05 00:31 | 36.15006 | -115.26686 | 7005 ft | 202 kts | 327° |
| 2026-05-05 00:31 | 36.16133 | -115.27689 | 7579 ft | 203 kts | 326° |
| 2026-05-05 00:31 | 36.17299 | -115.28708 | 8131 ft | 205 kts | 327° |
| 2026-05-05 00:31 | 36.18475 | -115.29724 | 8702 ft | 206 kts | 327° |
| 2026-05-05 00:32 | 36.19652 | -115.30730 | 9221 ft | 208 kts | 327° |
| 2026-05-05 00:32 | 36.20867 | -115.31754 | 9764 ft | 209 kts | 327° |
| 2026-05-05 00:32 | 36.22063 | -115.32756 | 10278 ft | 211 kts | 327° |
| 2026-05-05 00:32 | 36.23290 | -115.33777 | 10705 ft | 220 kts | 327° |
| 2026-05-05 00:33 | 36.24631 | -115.34882 | 10874 ft | 239 kts | 327° |
| 2026-05-05 00:33 | 36.26034 | -115.36040 | 11399 ft | 242 kts | 327° |
| 2026-05-05 00:33 | 36.27447 | -115.37199 | 12022 ft | 242 kts | 327° |
| 2026-05-05 00:33 | 36.28850 | -115.38341 | 12625 ft | 243 kts | 327° |
| 2026-05-05 00:34 | 36.30333 | -115.39322 | 13234 ft | 244 kts | 342° |
| 2026-05-05 00:34 | 36.32041 | -115.39370 | 13782 ft | 251 kts | 11° |
| 2026-05-05 00:34 | 36.33570 | -115.38284 | 14280 ft | 262 kts | 42° |
| 2026-05-05 00:34 | 36.34652 | -115.36437 | 14808 ft | 269 kts | 53° |
| 2026-05-05 00:35 | 36.35626 | -115.34448 | 15368 ft | 272 kts | 54° |
| 2026-05-05 00:35 | 36.36579 | -115.32374 | 15915 ft | 277 kts | 56° |
| 2026-05-05 00:35 | 36.37494 | -115.30287 | 16467 ft | 280 kts | 56° |
| 2026-05-05 00:35 | 36.38404 | -115.28141 | 17044 ft | 282 kts | 57° |
| 2026-05-05 00:36 | 36.39308 | -115.25959 | 17503 ft | 289 kts | 57° |
| 2026-05-05 00:36 | 36.40227 | -115.23701 | 17984 ft | 294 kts | 57° |
| 2026-05-05 00:36 | 36.41151 | -115.21395 | 18517 ft | 297 kts | 57° |
| 2026-05-05 00:36 | 36.42066 | -115.19085 | 19039 ft | 301 kts | 57° |
| 2026-05-05 00:37 | 36.42986 | -115.16748 | 19575 ft | 303 kts | 57° |
| 2026-05-05 00:37 | 36.43912 | -115.14381 | 20050 ft | 308 kts | 57° |
| 2026-05-05 00:37 | 36.44849 | -115.11974 | 20606 ft | 310 kts | 56° |
| 2026-05-05 00:37 | 36.45787 | -115.09563 | 21046 ft | 315 kts | 56° |
| 2026-05-05 00:38 | 36.46743 | -115.07091 | 21589 ft | 317 kts | 56° |
| 2026-05-05 00:38 | 36.47696 | -115.04626 | 22079 ft | 320 kts | 55° |
| 2026-05-05 00:38 | 36.48669 | -115.02104 | 22556 ft | 324 kts | 55° |
| 2026-05-05 00:38 | 36.49644 | -114.99571 | 23082 ft | 326 kts | 55° |
| 2026-05-05 00:39 | 36.50632 | -114.97004 | 23542 ft | 331 kts | 55° |
| 2026-05-05 00:39 | 36.51614 | -114.94446 | 24051 ft | 333 kts | 55° |
| 2026-05-05 00:39 | 36.52623 | -114.91818 | 24539 ft | 336 kts | 54° |
| 2026-05-05 00:39 | 36.53625 | -114.89200 | 25042 ft | 338 kts | 54° |
| 2026-05-05 00:40 | 36.54642 | -114.86546 | 25465 ft | 344 kts | 54° |
| 2026-05-05 00:40 | 36.55664 | -114.83870 | 26014 ft | 344 kts | 54° |
| 2026-05-05 00:40 | 36.56709 | -114.81139 | 26424 ft | 349 kts | 54° |
| 2026-05-05 00:40 | 36.57749 | -114.78414 | 26898 ft | 351 kts | 54° |
| 2026-05-05 00:41 | 36.58826 | -114.75607 | 27038 ft | 365 kts | 54° |
| 2026-05-05 00:41 | 36.59950 | -114.72674 | 27067 ft | 378 kts | 54° |
| 2026-05-05 00:41 | 36.61074 | -114.69724 | 27057 ft | 375 kts | 54° |
| 2026-05-05 00:41 | 36.62189 | -114.66786 | 27074 ft | 371 kts | 54° |
| 2026-05-05 00:42 | 36.63289 | -114.63890 | 27074 ft | 370 kts | 54° |
| 2026-05-05 00:42 | 36.64393 | -114.60977 | 27068 ft | 369 kts | 54° |
| 2026-05-05 00:42 | 36.65494 | -114.58067 | 27060 ft | 369 kts | 54° |
| 2026-05-05 00:42 | 36.66582 | -114.55193 | 27068 ft | 369 kts | 54° |
| 2026-05-05 00:43 | 36.67685 | -114.52279 | 27075 ft | 369 kts | 54° |
| 2026-05-05 00:43 | 36.68778 | -114.49390 | 27072 ft | 369 kts | 54° |
| 2026-05-05 00:43 | 36.69881 | -114.46468 | 27065 ft | 368 kts | 54° |
| 2026-05-05 00:43 | 36.70976 | -114.43569 | 27062 ft | 368 kts | 54° |
| 2026-05-05 00:44 | 36.72068 | -114.40671 | 27065 ft | 368 kts | 54° |
| 2026-05-05 00:44 | 36.73156 | -114.37784 | 27065 ft | 368 kts | 54° |
| 2026-05-05 00:44 | 36.74244 | -114.34895 | 27073 ft | 368 kts | 55° |
| 2026-05-05 00:44 | 36.75341 | -114.31977 | 27068 ft | 368 kts | 55° |
| 2026-05-05 00:45 | 36.76433 | -114.29070 | 27057 ft | 368 kts | 55° |
| 2026-05-05 00:45 | 36.77530 | -114.26181 | 27047 ft | 367 kts | 54° |
| 2026-05-05 00:45 | 36.78681 | -114.23338 | 27047 ft | 365 kts | 53° |
| 2026-05-05 00:45 | 36.79835 | -114.20521 | 27057 ft | 365 kts | 53° |
| 2026-05-05 00:46 | 36.81006 | -114.17644 | 27056 ft | 365 kts | 53° |
| 2026-05-05 00:46 | 36.82154 | -114.14818 | 27066 ft | 366 kts | 53° |
| 2026-05-05 00:46 | 36.83308 | -114.11970 | 27068 ft | 366 kts | 53° |
| 2026-05-05 00:46 | 36.84460 | -114.09126 | 27056 ft | 365 kts | 53° |
| 2026-05-05 00:47 | 36.85628 | -114.06239 | 27060 ft | 366 kts | 53° |
| 2026-05-05 00:47 | 36.86780 | -114.03386 | 27074 ft | 365 kts | 53° |
| 2026-05-05 00:47 | 36.87923 | -114.00555 | 27083 ft | 366 kts | 53° |
| 2026-05-05 00:47 | 36.89077 | -113.97694 | 27078 ft | 366 kts | 53° |
| 2026-05-05 00:48 | 36.90232 | -113.94828 | 27091 ft | 366 kts | 53° |
| 2026-05-05 00:48 | 36.91375 | -113.91988 | 27095 ft | 366 kts | 53° |
| 2026-05-05 00:48 | 36.92532 | -113.89111 | 27097 ft | 367 kts | 53° |
| 2026-05-05 00:48 | 36.93671 | -113.86278 | 27105 ft | 367 kts | 53° |
| 2026-05-05 00:49 | 36.94824 | -113.83405 | 27109 ft | 367 kts | 53° |
| 2026-05-05 00:49 | 36.95969 | -113.80552 | 27120 ft | 367 kts | 53° |
| 2026-05-05 00:49 | 36.97113 | -113.77698 | 27126 ft | 368 kts | 53° |
| 2026-05-05 00:49 | 36.98270 | -113.74812 | 27131 ft | 368 kts | 53° |
| 2026-05-05 00:50 | 36.99411 | -113.71958 | 27125 ft | 369 kts | 53° |
| 2026-05-05 00:50 | 37.00562 | -113.69080 | 27129 ft | 369 kts | 54° |
| 2026-05-05 00:50 | 37.01718 | -113.66182 | 27130 ft | 369 kts | 54° |
| 2026-05-05 00:50 | 37.02861 | -113.63320 | 27127 ft | 369 kts | 54° |
| 2026-05-05 00:51 | 37.04022 | -113.60408 | 27121 ft | 370 kts | 54° |
| 2026-05-05 00:51 | 37.05187 | -113.57482 | 27126 ft | 370 kts | 54° |
| 2026-05-05 00:51 | 37.06328 | -113.54614 | 27124 ft | 370 kts | 54° |
| 2026-05-05 00:51 | 37.07484 | -113.51706 | 27103 ft | 370 kts | 54° |
| 2026-05-05 00:52 | 37.08626 | -113.48830 | 27112 ft | 369 kts | 54° |
| 2026-05-05 00:52 | 37.09783 | -113.45915 | 27129 ft | 370 kts | 54° |
| 2026-05-05 00:52 | 37.10926 | -113.43031 | 27123 ft | 370 kts | 54° |
| 2026-05-05 00:52 | 37.12077 | -113.40128 | 27133 ft | 371 kts | 54° |
| 2026-05-05 00:53 | 37.13227 | -113.37225 | 27147 ft | 372 kts | 55° |
| 2026-05-05 00:53 | 37.14376 | -113.34317 | 27139 ft | 371 kts | 56° |
| 2026-05-05 00:53 | 37.15537 | -113.31374 | 27130 ft | 371 kts | 55° |
| 2026-05-05 00:53 | 37.16666 | -113.28513 | 27146 ft | 371 kts | 56° |
| 2026-05-05 00:54 | 37.17823 | -113.25581 | 27153 ft | 371 kts | 56° |
| 2026-05-05 00:54 | 37.18967 | -113.22678 | 27164 ft | 371 kts | 56° |
| 2026-05-05 00:54 | 37.20114 | -113.19760 | 27166 ft | 371 kts | 56° |
| 2026-05-05 00:54 | 37.21272 | -113.16815 | 27166 ft | 371 kts | 56° |
| 2026-05-05 00:55 | 37.22407 | -113.13924 | 27173 ft | 371 kts | 56° |
| 2026-05-05 00:55 | 37.23553 | -113.11005 | 27181 ft | 371 kts | 57° |
| 2026-05-05 00:55 | 37.24695 | -113.08094 | 27162 ft | 372 kts | 56° |
| 2026-05-05 00:55 | 37.25833 | -113.05188 | 27165 ft | 372 kts | 57° |
| 2026-05-05 00:56 | 37.26981 | -113.02256 | 27167 ft | 372 kts | 56° |
| 2026-05-05 00:56 | 37.28119 | -112.99346 | 27169 ft | 373 kts | 57° |
| 2026-05-05 00:56 | 37.29261 | -112.96420 | 27165 ft | 372 kts | 56° |
| 2026-05-05 00:56 | 37.30387 | -112.93536 | 27155 ft | 372 kts | 57° |
| 2026-05-05 00:57 | 37.31529 | -112.90604 | 27180 ft | 371 kts | 57° |
| 2026-05-05 00:57 | 37.32660 | -112.87702 | 27181 ft | 371 kts | 57° |
| 2026-05-05 00:57 | 37.33797 | -112.84782 | 27177 ft | 372 kts | 57° |
| 2026-05-05 00:57 | 37.34934 | -112.81860 | 27173 ft | 372 kts | 57° |
| 2026-05-05 00:58 | 37.36070 | -112.78934 | 27163 ft | 371 kts | 57° |
| 2026-05-05 00:58 | 37.37200 | -112.76022 | 27172 ft | 371 kts | 57° |
| 2026-05-05 00:58 | 37.38333 | -112.73101 | 27179 ft | 371 kts | 57° |
| 2026-05-05 00:58 | 37.39457 | -112.70201 | 27182 ft | 371 kts | 57° |
| 2026-05-05 00:59 | 37.40596 | -112.67260 | 27184 ft | 368 kts | 57° |
| 2026-05-05 00:59 | 37.41702 | -112.64397 | 27180 ft | 365 kts | 58° |
| 2026-05-05 00:59 | 37.42808 | -112.61532 | 27176 ft | 362 kts | 57° |
| 2026-05-05 00:59 | 37.43912 | -112.58669 | 27162 ft | 362 kts | 57° |
| 2026-05-05 01:00 | 37.45002 | -112.55844 | 27181 ft | 362 kts | 57° |
| 2026-05-05 01:00 | 37.46110 | -112.52971 | 27186 ft | 363 kts | 58° |
| 2026-05-05 01:00 | 37.47220 | -112.50086 | 27178 ft | 364 kts | 57° |
| 2026-05-05 01:00 | 37.48323 | -112.47218 | 27184 ft | 364 kts | 58° |
| 2026-05-05 01:01 | 37.49420 | -112.44362 | 27195 ft | 364 kts | 58° |
| 2026-05-05 01:01 | 37.50521 | -112.41493 | 27187 ft | 364 kts | 58° |
| 2026-05-05 01:01 | 37.51628 | -112.38608 | 27189 ft | 364 kts | 58° |
| 2026-05-05 01:01 | 37.52719 | -112.35761 | 27190 ft | 365 kts | 58° |
| 2026-05-05 01:02 | 37.53818 | -112.32889 | 27184 ft | 364 kts | 59° |
| 2026-05-05 01:02 | 37.54925 | -112.29993 | 27186 ft | 364 kts | 59° |
| 2026-05-05 01:02 | 37.56032 | -112.27094 | 27190 ft | 363 kts | 59° |
| 2026-05-05 01:02 | 37.57128 | -112.24223 | 27190 ft | 363 kts | 59° |
| 2026-05-05 01:03 | 37.58218 | -112.21365 | 27199 ft | 364 kts | 59° |
| 2026-05-05 01:03 | 37.59314 | -112.18487 | 27205 ft | 363 kts | 59° |
| 2026-05-05 01:03 | 37.60411 | -112.15606 | 27220 ft | 365 kts | 59° |
| 2026-05-05 01:03 | 37.61497 | -112.12749 | 27217 ft | 363 kts | 59° |
| 2026-05-05 01:04 | 37.62584 | -112.09889 | 27220 ft | 363 kts | 59° |
| 2026-05-05 01:04 | 37.64753 | -112.04171 | 27221 ft | 363 kts | 59° |
| 2026-05-05 01:04 | 37.65837 | -112.01309 | 27225 ft | 362 kts | 59° |
| 2026-05-05 01:05 | 37.66929 | -111.98426 | 27220 ft | 362 kts | 59° |
| 2026-05-05 01:05 | 37.68020 | -111.95541 | 27231 ft | 363 kts | 60° |
| 2026-05-05 01:05 | 37.69108 | -111.92660 | 27217 ft | 363 kts | 59° |
| 2026-05-05 01:05 | 37.70188 | -111.89797 | 27216 ft | 362 kts | 59° |
| 2026-05-05 01:06 | 37.71268 | -111.86933 | 27223 ft | 362 kts | 60° |
| 2026-05-05 01:06 | 37.72356 | -111.84047 | 27220 ft | 362 kts | 60° |
| 2026-05-05 01:06 | 37.73432 | -111.81188 | 27223 ft | 362 kts | 60° |
| 2026-05-05 01:06 | 37.74510 | -111.78322 | 27226 ft | 362 kts | 60° |
| 2026-05-05 01:07 | 37.75589 | -111.75451 | 27221 ft | 362 kts | 60° |
| 2026-05-05 01:07 | 37.76667 | -111.72576 | 27214 ft | 362 kts | 60° |
| 2026-05-05 01:07 | 37.77757 | -111.69670 | 27227 ft | 362 kts | 60° |
| 2026-05-05 01:07 | 37.78818 | -111.66835 | 27224 ft | 362 kts | 60° |
| 2026-05-05 01:08 | 37.79904 | -111.63934 | 27219 ft | 362 kts | 60° |
| 2026-05-05 01:08 | 37.80966 | -111.61094 | 27227 ft | 362 kts | 60° |
| 2026-05-05 01:08 | 37.82054 | -111.58183 | 27220 ft | 362 kts | 60° |
| 2026-05-05 01:08 | 37.83115 | -111.55341 | 27205 ft | 362 kts | 60° |
| 2026-05-05 01:09 | 37.84198 | -111.52437 | 27206 ft | 362 kts | 60° |
| 2026-05-05 01:09 | 37.85271 | -111.49556 | 27213 ft | 362 kts | 60° |
| 2026-05-05 01:09 | 37.86338 | -111.46686 | 27202 ft | 362 kts | 60° |
| 2026-05-05 01:09 | 37.87407 | -111.43812 | 27204 ft | 362 kts | 60° |
| 2026-05-05 01:10 | 37.88482 | -111.40919 | 27200 ft | 362 kts | 61° |
| 2026-05-05 01:10 | 37.89548 | -111.38045 | 27197 ft | 361 kts | 61° |
| 2026-05-05 01:10 | 37.90612 | -111.35175 | 27199 ft | 361 kts | 61° |
| 2026-05-05 01:10 | 37.91675 | -111.32304 | 27188 ft | 360 kts | 62° |
| 2026-05-05 01:11 | 37.92742 | -111.29422 | 27186 ft | 360 kts | 62° |
| 2026-05-05 01:11 | 37.93806 | -111.26544 | 27191 ft | 360 kts | 62° |
| 2026-05-05 01:11 | 37.94860 | -111.23692 | 27195 ft | 359 kts | 62° |
| 2026-05-05 01:11 | 37.95918 | -111.20825 | 27184 ft | 359 kts | 62° |
| 2026-05-05 01:12 | 37.96978 | -111.17949 | 27192 ft | 359 kts | 62° |
| 2026-05-05 01:12 | 37.98032 | -111.15089 | 27198 ft | 359 kts | 62° |
| 2026-05-05 01:12 | 37.99081 | -111.12237 | 27181 ft | 359 kts | 62° |
| 2026-05-05 01:12 | 38.00136 | -111.09368 | 27177 ft | 359 kts | 62° |
| 2026-05-05 01:13 | 38.01187 | -111.06506 | 27176 ft | 359 kts | 62° |
| 2026-05-05 01:13 | 38.02245 | -111.03622 | 27179 ft | 359 kts | 62° |
| 2026-05-05 01:13 | 38.03302 | -111.00739 | 27186 ft | 359 kts | 62° |
| 2026-05-05 01:13 | 38.04356 | -110.97858 | 27176 ft | 359 kts | 62° |
| 2026-05-05 01:14 | 38.05411 | -110.94976 | 27176 ft | 358 kts | 62° |
| 2026-05-05 01:14 | 38.06457 | -110.92113 | 27173 ft | 358 kts | 62° |
| 2026-05-05 01:14 | 38.07497 | -110.89267 | 27164 ft | 358 kts | 62° |
| 2026-05-05 01:14 | 38.08544 | -110.86397 | 27180 ft | 358 kts | 62° |
| 2026-05-05 01:15 | 38.09604 | -110.83488 | 27173 ft | 357 kts | 62° |
| 2026-05-05 01:15 | 38.10648 | -110.80621 | 27164 ft | 357 kts | 62° |
| 2026-05-05 01:15 | 38.11689 | -110.77760 | 27172 ft | 356 kts | 62° |
| 2026-05-05 01:15 | 38.12721 | -110.74919 | 27168 ft | 356 kts | 62° |
| 2026-05-05 01:16 | 38.13764 | -110.72046 | 27174 ft | 356 kts | 62° |
| 2026-05-05 01:16 | 38.14796 | -110.69202 | 27167 ft | 355 kts | 62° |
| 2026-05-05 01:16 | 38.15834 | -110.66335 | 27173 ft | 355 kts | 62° |
| 2026-05-05 01:16 | 38.16859 | -110.63507 | 27164 ft | 355 kts | 62° |
| 2026-05-05 01:17 | 38.17884 | -110.60672 | 27173 ft | 354 kts | 62° |
| 2026-05-05 01:17 | 38.18909 | -110.57836 | 27163 ft | 353 kts | 62° |
| 2026-05-05 01:17 | 38.19941 | -110.54977 | 27156 ft | 353 kts | 62° |
| 2026-05-05 01:17 | 38.20975 | -110.52110 | 27159 ft | 353 kts | 62° |
| 2026-05-05 01:18 | 38.21993 | -110.49287 | 27152 ft | 353 kts | 62° |
| 2026-05-05 01:18 | 38.23025 | -110.46416 | 27162 ft | 353 kts | 62° |
| 2026-05-05 01:18 | 38.24039 | -110.43599 | 27164 ft | 353 kts | 63° |
| 2026-05-05 01:18 | 38.25069 | -110.40730 | 27168 ft | 352 kts | 62° |
| 2026-05-05 01:19 | 38.26079 | -110.37918 | 27162 ft | 352 kts | 63° |
| 2026-05-05 01:19 | 38.27097 | -110.35079 | 27163 ft | 352 kts | 63° |
| 2026-05-05 01:19 | 38.28122 | -110.32217 | 27173 ft | 352 kts | 63° |
| 2026-05-05 01:19 | 38.29135 | -110.29388 | 27170 ft | 352 kts | 63° |
| 2026-05-05 01:20 | 38.30150 | -110.26552 | 27162 ft | 353 kts | 63° |
| 2026-05-05 01:20 | 38.31159 | -110.23726 | 27161 ft | 353 kts | 63° |
| 2026-05-05 01:20 | 38.32180 | -110.20866 | 27178 ft | 352 kts | 63° |
| 2026-05-05 01:20 | 38.33197 | -110.18013 | 27167 ft | 351 kts | 63° |
| 2026-05-05 01:21 | 38.34203 | -110.15191 | 27160 ft | 351 kts | 63° |
| 2026-05-05 01:21 | 38.35209 | -110.12361 | 27171 ft | 350 kts | 63° |
| 2026-05-05 01:21 | 38.36223 | -110.09512 | 27168 ft | 350 kts | 63° |
| 2026-05-05 01:21 | 38.37220 | -110.06704 | 27167 ft | 350 kts | 63° |
| 2026-05-05 01:22 | 38.38230 | -110.03857 | 27159 ft | 349 kts | 63° |
| 2026-05-05 01:22 | 38.39229 | -110.01041 | 27178 ft | 349 kts | 63° |
| 2026-05-05 01:22 | 38.40228 | -109.98220 | 27176 ft | 349 kts | 63° |
| 2026-05-05 01:22 | 38.41223 | -109.95407 | 27169 ft | 348 kts | 63° |
| 2026-05-05 01:23 | 38.42222 | -109.92580 | 27170 ft | 348 kts | 63° |
| 2026-05-05 01:23 | 38.43225 | -109.89741 | 27168 ft | 347 kts | 63° |
| 2026-05-05 01:23 | 38.44211 | -109.86947 | 27172 ft | 347 kts | 63° |
| 2026-05-05 01:23 | 38.45202 | -109.84135 | 27163 ft | 347 kts | 63° |
| 2026-05-05 01:24 | 38.46189 | -109.81334 | 27163 ft | 347 kts | 63° |
| 2026-05-05 01:24 | 38.47179 | -109.78522 | 27171 ft | 347 kts | 63° |
| 2026-05-05 01:24 | 38.48166 | -109.75714 | 27170 ft | 347 kts | 63° |
| 2026-05-05 01:24 | 38.49155 | -109.72897 | 27171 ft | 346 kts | 63° |
| 2026-05-05 01:25 | 38.50146 | -109.70074 | 27163 ft | 346 kts | 63° |
| 2026-05-05 01:25 | 38.51129 | -109.67266 | 27181 ft | 345 kts | 63° |
| 2026-05-05 01:25 | 38.52102 | -109.64487 | 27160 ft | 345 kts | 63° |
| 2026-05-05 01:25 | 38.53088 | -109.61671 | 27164 ft | 345 kts | 63° |
| 2026-05-05 01:26 | 38.54062 | -109.58883 | 27169 ft | 345 kts | 63° |
| 2026-05-05 01:26 | 38.55049 | -109.56056 | 27167 ft | 345 kts | 63° |
| 2026-05-05 01:26 | 38.56027 | -109.53256 | 27167 ft | 345 kts | 63° |
| 2026-05-05 01:26 | 38.57010 | -109.50432 | 27167 ft | 345 kts | 63° |
| 2026-05-05 01:27 | 38.57980 | -109.47646 | 27169 ft | 345 kts | 63° |
| 2026-05-05 01:27 | 38.58955 | -109.44846 | 27169 ft | 345 kts | 63° |
| 2026-05-05 01:27 | 38.59935 | -109.42026 | 27161 ft | 345 kts | 63° |
| 2026-05-05 01:27 | 38.60903 | -109.39233 | 27159 ft | 345 kts | 63° |
| 2026-05-05 01:28 | 38.61889 | -109.36393 | 27148 ft | 345 kts | 64° |
| 2026-05-05 01:28 | 38.62851 | -109.33617 | 27151 ft | 344 kts | 64° |
| 2026-05-05 01:28 | 38.63824 | -109.30805 | 27147 ft | 344 kts | 64° |
| 2026-05-05 01:28 | 38.64798 | -109.27988 | 27150 ft | 343 kts | 64° |
| 2026-05-05 01:29 | 38.65756 | -109.25217 | 27153 ft | 343 kts | 64° |
| 2026-05-05 01:29 | 38.66731 | -109.22392 | 27150 ft | 343 kts | 64° |
| 2026-05-05 01:29 | 38.67688 | -109.19616 | 27158 ft | 343 kts | 64° |
| 2026-05-05 01:29 | 38.68654 | -109.16812 | 27152 ft | 343 kts | 64° |
| 2026-05-05 01:30 | 38.69620 | -109.14005 | 27163 ft | 342 kts | 64° |
| 2026-05-05 01:30 | 38.70573 | -109.11234 | 27161 ft | 342 kts | 64° |
| 2026-05-05 01:30 | 38.71541 | -109.08415 | 27167 ft | 342 kts | 64° |
| 2026-05-05 01:30 | 38.72494 | -109.05638 | 27167 ft | 341 kts | 64° |
| 2026-05-05 01:31 | 38.73448 | -109.02856 | 27177 ft | 341 kts | 64° |
| 2026-05-05 01:31 | 38.74403 | -109.00068 | 27182 ft | 341 kts | 64° |
| 2026-05-05 01:31 | 38.75366 | -108.97254 | 27174 ft | 340 kts | 64° |
| 2026-05-05 01:31 | 38.76316 | -108.94477 | 27176 ft | 340 kts | 64° |
| 2026-05-05 01:32 | 38.77270 | -108.91683 | 27176 ft | 340 kts | 64° |
| 2026-05-05 01:32 | 38.78222 | -108.88892 | 27164 ft | 340 kts | 64° |
| 2026-05-05 01:32 | 38.79179 | -108.86085 | 27180 ft | 339 kts | 64° |
| 2026-05-05 01:32 | 38.80132 | -108.83286 | 27176 ft | 339 kts | 64° |
| 2026-05-05 01:33 | 38.81078 | -108.80505 | 27184 ft | 339 kts | 64° |
| 2026-05-05 01:33 | 38.82029 | -108.77709 | 27186 ft | 338 kts | 64° |
| 2026-05-05 01:33 | 38.82981 | -108.74906 | 27203 ft | 338 kts | 64° |
| 2026-05-05 01:33 | 38.83916 | -108.72150 | 27190 ft | 339 kts | 64° |
| 2026-05-05 01:34 | 38.84862 | -108.69360 | 27196 ft | 339 kts | 65° |
| 2026-05-05 01:34 | 38.85813 | -108.66549 | 27193 ft | 339 kts | 65° |
| 2026-05-05 01:34 | 38.86746 | -108.63792 | 27193 ft | 339 kts | 65° |
| 2026-05-05 01:34 | 38.87691 | -108.60994 | 27200 ft | 338 kts | 65° |
| 2026-05-05 01:35 | 38.88628 | -108.58219 | 27206 ft | 338 kts | 65° |
| 2026-05-05 01:35 | 38.89558 | -108.55463 | 27200 ft | 338 kts | 65° |
| 2026-05-05 01:35 | 38.90499 | -108.52667 | 27207 ft | 338 kts | 65° |
| 2026-05-05 01:35 | 38.91433 | -108.49895 | 27199 ft | 339 kts | 65° |
| 2026-05-05 01:36 | 38.92364 | -108.47128 | 27209 ft | 340 kts | 65° |
| 2026-05-05 01:36 | 38.93308 | -108.44317 | 27214 ft | 339 kts | 65° |
| 2026-05-05 01:36 | 38.94240 | -108.41540 | 27212 ft | 339 kts | 65° |
| 2026-05-05 01:36 | 38.95184 | -108.38726 | 27197 ft | 339 kts | 65° |
| 2026-05-05 01:37 | 38.96111 | -108.35958 | 27203 ft | 339 kts | 65° |
| 2026-05-05 01:37 | 38.97044 | -108.33170 | 27217 ft | 338 kts | 65° |
| 2026-05-05 01:37 | 38.97982 | -108.30365 | 27218 ft | 338 kts | 65° |
| 2026-05-05 01:37 | 38.98912 | -108.27580 | 27211 ft | 337 kts | 66° |
| 2026-05-05 01:38 | 38.99842 | -108.24792 | 27219 ft | 335 kts | 66° |
| 2026-05-05 01:38 | 39.00758 | -108.22044 | 27221 ft | 335 kts | 65° |
| 2026-05-05 01:38 | 39.01677 | -108.19285 | 27226 ft | 335 kts | 65° |
| 2026-05-05 01:38 | 39.02599 | -108.16515 | 27227 ft | 335 kts | 65° |
| 2026-05-05 01:39 | 39.03524 | -108.13731 | 27224 ft | 336 kts | 66° |
| 2026-05-05 01:39 | 39.04456 | -108.10925 | 27218 ft | 335 kts | 65° |
| 2026-05-05 01:39 | 39.05379 | -108.08142 | 27217 ft | 337 kts | 65° |
| 2026-05-05 01:39 | 39.06302 | -108.05415 | 27049 ft | 325 kts | 65° |
| 2026-05-05 01:40 | 39.07193 | -108.02743 | 26477 ft | 318 kts | 66° |
| 2026-05-05 01:40 | 39.08055 | -108.00139 | 25812 ft | 314 kts | 66° |
| 2026-05-05 01:40 | 39.08903 | -107.97575 | 25215 ft | 308 kts | 66° |
| 2026-05-05 01:40 | 39.09728 | -107.95077 | 24584 ft | 303 kts | 66° |
| 2026-05-05 01:41 | 39.10543 | -107.92606 | 23921 ft | 298 kts | 66° |
| 2026-05-05 01:41 | 39.11353 | -107.90151 | 23242 ft | 294 kts | 66° |
| 2026-05-05 01:41 | 39.12142 | -107.87756 | 22565 ft | 291 kts | 66° |
| 2026-05-05 01:41 | 39.12933 | -107.85353 | 21901 ft | 288 kts | 66° |
| 2026-05-05 01:42 | 39.13714 | -107.82978 | 21223 ft | 285 kts | 66° |
| 2026-05-05 01:42 | 39.14484 | -107.80636 | 20551 ft | 282 kts | 66° |
| 2026-05-05 01:42 | 39.15248 | -107.78307 | 19873 ft | 280 kts | 66° |
| 2026-05-05 01:42 | 39.16015 | -107.75968 | 19241 ft | 277 kts | 66° |
| 2026-05-05 01:43 | 39.16766 | -107.73679 | 18597 ft | 274 kts | 66° |
| 2026-05-05 01:43 | 39.17499 | -107.71441 | 17965 ft | 272 kts | 66° |
| 2026-05-05 01:43 | 39.18248 | -107.69154 | 17308 ft | 270 kts | 66° |
| 2026-05-05 01:43 | 39.18965 | -107.66960 | 16725 ft | 267 kts | 66° |
| 2026-05-05 01:44 | 39.19694 | -107.64726 | 16073 ft | 267 kts | 66° |
| 2026-05-05 01:44 | 39.20416 | -107.62517 | 15488 ft | 265 kts | 66° |
| 2026-05-05 01:44 | 39.21125 | -107.60342 | 14916 ft | 262 kts | 66° |
| 2026-05-05 01:44 | 39.21827 | -107.58190 | 14352 ft | 260 kts | 66° |
| 2026-05-05 01:45 | 39.22527 | -107.56039 | 14100 ft | 254 kts | 66° |
| 2026-05-05 01:45 | 39.23222 | -107.53876 | 14030 ft | 265 kts | 66° |
| 2026-05-05 01:45 | 39.23933 | -107.51684 | 14010 ft | 268 kts | 66° |
| 2026-05-05 01:45 | 39.24667 | -107.49420 | 14007 ft | 269 kts | 66° |
| 2026-05-05 01:46 | 39.25400 | -107.47155 | 14006 ft | 269 kts | 66° |
| 2026-05-05 01:46 | 39.26128 | -107.44906 | 14011 ft | 267 kts | 66° |
| 2026-05-05 01:46 | 39.26850 | -107.42673 | 14014 ft | 267 kts | 66° |
| 2026-05-05 01:46 | 39.27561 | -107.40475 | 14001 ft | 266 kts | 66° |
| 2026-05-05 01:47 | 39.28280 | -107.38251 | 14005 ft | 266 kts | 66° |
| 2026-05-05 01:47 | 39.28999 | -107.36024 | 14009 ft | 265 kts | 66° |
| 2026-05-05 01:47 | 39.29706 | -107.33836 | 14011 ft | 265 kts | 67° |
| 2026-05-05 01:47 | 39.30425 | -107.31609 | 14018 ft | 264 kts | 67° |
| 2026-05-05 01:48 | 39.31130 | -107.29420 | 14023 ft | 264 kts | 67° |
| 2026-05-05 01:48 | 39.31846 | -107.27200 | 14029 ft | 264 kts | 67° |
| 2026-05-05 01:48 | 39.32555 | -107.24998 | 14036 ft | 264 kts | 67° |
| 2026-05-05 01:48 | 39.33268 | -107.22781 | 14041 ft | 264 kts | 67° |
| 2026-05-05 01:49 | 39.33986 | -107.20553 | 14045 ft | 265 kts | 67° |
| 2026-05-05 01:49 | 39.34685 | -107.18372 | 14035 ft | 259 kts | 67° |
| 2026-05-05 01:49 | 39.35360 | -107.16286 | 14041 ft | 245 kts | 67° |
| 2026-05-05 01:49 | 39.36006 | -107.14282 | 14046 ft | 239 kts | 67° |
| 2026-05-05 01:50 | 39.36650 | -107.12277 | 14045 ft | 240 kts | 67° |
| 2026-05-05 01:50 | 39.37284 | -107.10303 | 13918 ft | 231 kts | 67° |
| 2026-05-05 01:50 | 39.37908 | -107.08371 | 13264 ft | 236 kts | 67° |
| 2026-05-05 01:50 | 39.38545 | -107.06387 | 12653 ft | 237 kts | 67° |
| 2026-05-05 01:51 | 39.39164 | -107.04455 | 12389 ft | 219 kts | 67° |
| 2026-05-05 01:51 | 39.39713 | -107.02736 | 12271 ft | 194 kts | 67° |
| 2026-05-05 01:51 | 39.40199 | -107.01111 | 12366 ft | 191 kts | 69° |
| 2026-05-05 01:51 | 39.40641 | -106.99511 | 12480 ft | 187 kts | 69° |
| 2026-05-05 01:52 | 39.41129 | -106.97933 | 12494 ft | 184 kts | 66° |
| 2026-05-05 01:52 | 39.41509 | -106.96383 | 12473 ft | 183 kts | 89° |
| 2026-05-05 01:52 | 39.41058 | -106.94864 | 12397 ft | 178 kts | 129° |
| 2026-05-05 01:52 | 39.39978 | -106.94029 | 12087 ft | 188 kts | 160° |
| 2026-05-05 01:53 | 39.38755 | -106.93556 | 11745 ft | 174 kts | 163° |
| 2026-05-05 01:53 | 39.37612 | -106.93182 | 11310 ft | 165 kts | 164° |
| 2026-05-05 01:53 | 39.36502 | -106.92814 | 10756 ft | 165 kts | 163° |
| 2026-05-05 01:53 | 39.35380 | -106.92450 | 10227 ft | 162 kts | 166° |
| 2026-05-05 01:54 | 39.34241 | -106.92116 | 10137 ft | 173 kts | 168° |
| 2026-05-05 01:54 | 39.33025 | -106.91815 | 10208 ft | 175 kts | 170° |
| 2026-05-05 01:54 | 39.31823 | -106.91498 | 9997 ft | 172 kts | 164° |
| 2026-05-05 01:54 | 39.30689 | -106.91007 | 9507 ft | 164 kts | 159° |
| 2026-05-05 01:55 | 39.29678 | -106.90440 | 9036 ft | 158 kts | 154° |
| 2026-05-05 01:55 | 39.28682 | -106.89899 | 8555 ft | 152 kts | 160° |
| 2026-05-05 01:55 | 39.27679 | -106.89420 | 8385 ft | 151 kts | 159° |
| 2026-05-05 01:55 | 39.26699 | -106.88962 | 8229 ft | 151 kts | 160° |
| 2026-05-05 01:56 | 39.25702 | -106.88512 | 8126 ft | 149 kts | 160° |
| 2026-05-05 01:56 | 39.24704 | -106.88042 | 7926 ft | 152 kts | 158° |
| 2026-05-05 01:56 | 39.23728 | -106.87561 | 7772 ft | 149 kts | 159° |
| 2026-05-05 01:56 | 39.22780 | -106.87111 | 7728 ft | 134 kts | 158° |
| 2026-05-05 01:57 | 39.22141 | -106.86803 | 7776 ft | 47 kts | 160° |
| 2026-05-05 01:57 | 39.22022 | -106.86742 | 7785 ft | 8 kts | 133° |
| 2026-05-05 01:57 | 39.22028 | -106.86669 | 7789 ft | 0 kts | 65° |
| 2026-05-05 01:57 | 39.22030 | -106.86664 | 7789 ft | 4 kts | 65° |
| 2026-05-05 01:58 | 39.22026 | -106.86639 | 7790 ft | 4 kts | 115° |
| 2026-05-05 01:58 | 39.22015 | -106.86613 | 7793 ft | 4 kts | 103° |
| 2026-05-05 01:58 | 39.22008 | -106.86579 | 7795 ft | 2 kts | 102° |
| 2026-05-05 01:58 | 39.22006 | -106.86562 | 7796 ft | 5 kts | 101° |
| 2026-05-05 01:59 | 39.22004 | -106.86549 | 7797 ft | 0 kts | 101° |